NWS480 UNOO-URSS
Flight info
| Callsign | NWS480 |
|---|---|
| Flight time | N/A |
| Altitude | 34000 |
| Route | ALODA5D ALODA N990 DAKIN N55 ARKER/K0843F360 N55 OGANU P574 AKT N37 IPLED DCT GOTIK DCT MEMZA DCT VENFO DCT BINOL BINOL1K |
| Aircraft | A321/M-SDE3FGHIRWY/LB1 |
Departure
| Time | 2026-04-29 10:48 |
|---|---|
| Airport | Omsk Central Airport (UNOO) |
Arrival
| Time | N/A |
|---|---|
| Airport | Sochi International Airport (URSS) |
| Time | Latitude | Longitude | Altitude | Speed | Heading |
|---|---|---|---|---|---|
| 2026-04-29 10:34 | 54.96307 | 73.31944 | 298 ft | 0 kts | 137° |
| 2026-04-29 10:44 | 54.96304 | 73.31950 | 298 ft | 2 kts | 137° |
| 2026-04-29 10:44 | 54.96290 | 73.31972 | 300 ft | 4 kts | 137° |
| 2026-04-29 10:44 | 54.96268 | 73.32026 | 298 ft | 7 kts | 110° |
| 2026-04-29 10:44 | 54.96285 | 73.32107 | 300 ft | 9 kts | 40° |
| 2026-04-29 10:45 | 54.96341 | 73.32180 | 298 ft | 11 kts | 37° |
| 2026-04-29 10:45 | 54.96418 | 73.32236 | 300 ft | 13 kts | 3° |
| 2026-04-29 10:45 | 54.96475 | 73.32346 | 302 ft | 14 kts | 78° |
| 2026-04-29 10:45 | 54.96500 | 73.32520 | 299 ft | 16 kts | 75° |
| 2026-04-29 10:46 | 54.96529 | 73.32718 | 298 ft | 18 kts | 77° |
| 2026-04-29 10:46 | 54.96557 | 73.32940 | 299 ft | 18 kts | 78° |
| 2026-04-29 10:46 | 54.96630 | 73.33040 | 299 ft | 15 kts | 358° |
| 2026-04-29 10:46 | 54.96743 | 73.32999 | 299 ft | 18 kts | 347° |
| 2026-04-29 10:47 | 54.96870 | 73.32948 | 298 ft | 20 kts | 347° |
| 2026-04-29 10:47 | 54.96956 | 73.32870 | 300 ft | 11 kts | 282° |
| 2026-04-29 10:47 | 54.96951 | 73.32808 | 302 ft | 0 kts | 256° |
| 2026-04-29 10:47 | 54.96949 | 73.32794 | 305 ft | 12 kts | 256° |
| 2026-04-29 10:48 | 54.96869 | 73.32201 | 310 ft | 87 kts | 257° |
| 2026-04-29 10:48 | 54.96683 | 73.30793 | 312 ft | 148 kts | 258° |
| 2026-04-29 10:48 | 54.96425 | 73.28906 | 822 ft | 160 kts | 252° |
| 2026-04-29 10:48 | 54.96176 | 73.27010 | 1577 ft | 160 kts | 251° |
| 2026-04-29 10:49 | 54.95937 | 73.25176 | 2358 ft | 152 kts | 251° |
| 2026-04-29 10:49 | 54.95680 | 73.23293 | 2726 ft | 170 kts | 251° |
| 2026-04-29 10:49 | 54.95384 | 73.21167 | 3049 ft | 192 kts | 251° |
| 2026-04-29 10:49 | 54.95056 | 73.18787 | 3319 ft | 214 kts | 252° |
| 2026-04-29 10:50 | 54.94696 | 73.16166 | 3605 ft | 234 kts | 252° |
| 2026-04-29 10:50 | 54.94298 | 73.13250 | 3944 ft | 253 kts | 253° |
| 2026-04-29 10:50 | 54.93900 | 73.10295 | 4627 ft | 257 kts | 253° |
| 2026-04-29 10:50 | 54.93490 | 73.07251 | 5364 ft | 260 kts | 253° |
| 2026-04-29 10:51 | 54.93022 | 73.04219 | 6083 ft | 259 kts | 243° |
| 2026-04-29 10:51 | 54.91885 | 73.01880 | 6767 ft | 257 kts | 209° |
| 2026-04-29 10:51 | 54.90211 | 73.00770 | 7439 ft | 259 kts | 194° |
| 2026-04-29 10:51 | 54.88427 | 73.00175 | 8141 ft | 262 kts | 190° |
| 2026-04-29 10:52 | 54.86656 | 72.99727 | 8818 ft | 264 kts | 189° |
| 2026-04-29 10:52 | 54.84960 | 72.99290 | 9470 ft | 266 kts | 191° |
| 2026-04-29 10:52 | 54.83130 | 72.98760 | 10170 ft | 268 kts | 192° |
| 2026-04-29 10:52 | 54.81265 | 72.98156 | 10518 ft | 282 kts | 193° |
| 2026-04-29 10:53 | 54.79273 | 72.97458 | 10646 ft | 302 kts | 193° |
| 2026-04-29 10:53 | 54.77149 | 72.96681 | 10762 ft | 322 kts | 194° |
| 2026-04-29 10:53 | 54.74907 | 72.95842 | 11043 ft | 334 kts | 194° |
| 2026-04-29 10:53 | 54.72619 | 72.94978 | 11572 ft | 338 kts | 194° |
| 2026-04-29 10:54 | 54.70308 | 72.94102 | 12125 ft | 341 kts | 194° |
| 2026-04-29 10:54 | 54.67981 | 72.93223 | 12697 ft | 344 kts | 194° |
| 2026-04-29 10:54 | 54.65631 | 72.92337 | 13273 ft | 347 kts | 194° |
| 2026-04-29 10:54 | 54.63289 | 72.91453 | 13825 ft | 350 kts | 195° |
| 2026-04-29 10:55 | 54.60974 | 72.90154 | 14318 ft | 351 kts | 206° |
| 2026-04-29 10:55 | 54.58847 | 72.88080 | 14826 ft | 351 kts | 214° |
| 2026-04-29 10:55 | 54.56796 | 72.85769 | 15359 ft | 353 kts | 214° |
| 2026-04-29 10:55 | 54.54733 | 72.83453 | 15890 ft | 355 kts | 214° |
| 2026-04-29 10:56 | 54.52657 | 72.81137 | 16424 ft | 356 kts | 214° |
| 2026-04-29 10:56 | 54.50563 | 72.78811 | 16948 ft | 358 kts | 214° |
| 2026-04-29 10:56 | 54.48466 | 72.76484 | 17461 ft | 360 kts | 214° |
| 2026-04-29 10:56 | 54.46361 | 72.74143 | 17947 ft | 361 kts | 214° |
| 2026-04-29 10:57 | 54.44270 | 72.71818 | 18414 ft | 363 kts | 214° |
| 2026-04-29 10:57 | 54.42137 | 72.69453 | 18823 ft | 365 kts | 214° |
| 2026-04-29 10:57 | 54.39994 | 72.67079 | 19199 ft | 368 kts | 214° |
| 2026-04-29 10:57 | 54.37830 | 72.64681 | 19569 ft | 371 kts | 214° |
| 2026-04-29 10:58 | 54.35653 | 72.62267 | 19933 ft | 374 kts | 214° |
| 2026-04-29 10:58 | 54.33456 | 72.59839 | 20295 ft | 377 kts | 214° |
| 2026-04-29 10:58 | 54.31244 | 72.57398 | 20670 ft | 379 kts | 214° |
| 2026-04-29 10:58 | 54.29013 | 72.54945 | 21027 ft | 382 kts | 214° |
| 2026-04-29 10:59 | 54.26767 | 72.52478 | 21375 ft | 385 kts | 214° |
| 2026-04-29 10:59 | 54.24503 | 72.49995 | 21735 ft | 388 kts | 214° |
| 2026-04-29 10:59 | 54.22222 | 72.47498 | 22079 ft | 391 kts | 214° |
| 2026-04-29 10:59 | 54.19923 | 72.44986 | 22435 ft | 394 kts | 214° |
| 2026-04-29 11:00 | 54.17640 | 72.42381 | 22776 ft | 395 kts | 219° |
| 2026-04-29 11:00 | 54.15618 | 72.39202 | 23115 ft | 396 kts | 229° |
| 2026-04-29 11:00 | 54.13956 | 72.35441 | 23452 ft | 398 kts | 238° |
| 2026-04-29 11:00 | 54.12489 | 72.31416 | 23789 ft | 401 kts | 238° |
| 2026-04-29 11:01 | 54.11008 | 72.27368 | 24082 ft | 403 kts | 238° |
| 2026-04-29 11:01 | 54.09532 | 72.23363 | 24399 ft | 404 kts | 238° |
| 2026-04-29 11:01 | 54.08027 | 72.19307 | 24724 ft | 405 kts | 237° |
| 2026-04-29 11:01 | 54.06518 | 72.15248 | 25051 ft | 407 kts | 237° |
| 2026-04-29 11:02 | 54.05003 | 72.11179 | 25376 ft | 408 kts | 237° |
| 2026-04-29 11:02 | 54.03475 | 72.07081 | 25699 ft | 409 kts | 237° |
| 2026-04-29 11:02 | 54.01949 | 72.02982 | 26008 ft | 411 kts | 237° |
| 2026-04-29 11:02 | 54.00417 | 71.98868 | 26320 ft | 412 kts | 237° |
| 2026-04-29 11:03 | 53.98878 | 71.94748 | 26633 ft | 413 kts | 237° |
| 2026-04-29 11:03 | 53.97333 | 71.90623 | 26936 ft | 414 kts | 237° |
| 2026-04-29 11:03 | 53.95781 | 71.86494 | 27225 ft | 416 kts | 237° |
| 2026-04-29 11:03 | 53.94221 | 71.82354 | 27531 ft | 417 kts | 237° |
| 2026-04-29 11:04 | 53.92674 | 71.78250 | 27809 ft | 419 kts | 237° |
| 2026-04-29 11:04 | 53.91084 | 71.74035 | 28084 ft | 420 kts | 237° |
| 2026-04-29 11:04 | 53.89531 | 71.69911 | 28319 ft | 421 kts | 237° |
| 2026-04-29 11:04 | 53.87950 | 71.65721 | 28575 ft | 422 kts | 237° |
| 2026-04-29 11:05 | 53.86363 | 71.61532 | 28808 ft | 423 kts | 237° |
| 2026-04-29 11:05 | 53.84765 | 71.57328 | 29019 ft | 425 kts | 236° |
| 2026-04-29 11:05 | 53.83170 | 71.53139 | 29317 ft | 424 kts | 236° |
| 2026-04-29 11:05 | 53.81574 | 71.48944 | 29655 ft | 422 kts | 236° |
| 2026-04-29 11:06 | 53.79983 | 71.44768 | 29978 ft | 421 kts | 236° |
| 2026-04-29 11:06 | 53.78395 | 71.40612 | 30299 ft | 420 kts | 236° |
| 2026-04-29 11:06 | 53.76814 | 71.36481 | 30569 ft | 419 kts | 236° |
| 2026-04-29 11:06 | 53.75224 | 71.32339 | 30826 ft | 419 kts | 236° |
| 2026-04-29 11:07 | 53.73639 | 71.28216 | 31082 ft | 418 kts | 236° |
| 2026-04-29 11:07 | 53.72060 | 71.24103 | 31337 ft | 417 kts | 236° |
| 2026-04-29 11:07 | 53.70483 | 71.19996 | 31583 ft | 417 kts | 236° |
| 2026-04-29 11:07 | 53.68907 | 71.15899 | 31841 ft | 416 kts | 236° |
| 2026-04-29 11:08 | 53.67328 | 71.11812 | 32086 ft | 415 kts | 236° |
| 2026-04-29 11:08 | 53.65750 | 71.07738 | 32318 ft | 415 kts | 236° |
| 2026-04-29 11:08 | 53.64171 | 71.03669 | 32573 ft | 414 kts | 236° |
| 2026-04-29 11:08 | 53.62591 | 70.99605 | 32810 ft | 414 kts | 236° |
| 2026-04-29 11:09 | 53.61011 | 70.95548 | 33034 ft | 414 kts | 236° |
| 2026-04-29 11:09 | 53.59434 | 70.91507 | 33263 ft | 414 kts | 236° |
| 2026-04-29 11:09 | 53.57855 | 70.87461 | 33488 ft | 413 kts | 236° |
| 2026-04-29 11:09 | 53.56276 | 70.83417 | 33707 ft | 413 kts | 236° |
| 2026-04-29 11:10 | 53.54696 | 70.79379 | 33936 ft | 413 kts | 236° |
| 2026-04-29 11:10 | 53.53138 | 70.75405 | 34132 ft | 413 kts | 236° |
| 2026-04-29 11:10 | 53.51536 | 70.71327 | 34175 ft | 412 kts | 236° |
| 2026-04-29 11:11 | 53.48403 | 70.63372 | 34180 ft | 411 kts | 236° |
| 2026-04-29 11:11 | 53.45241 | 70.55371 | 34179 ft | 411 kts | 236° |
| 2026-04-29 11:12 | 53.42075 | 70.47380 | 34184 ft | 412 kts | 236° |
| 2026-04-29 11:12 | 53.38893 | 70.39384 | 34182 ft | 413 kts | 236° |
| 2026-04-29 11:13 | 53.35699 | 70.31376 | 34182 ft | 414 kts | 236° |
| 2026-04-29 11:13 | 53.32496 | 70.23378 | 34184 ft | 414 kts | 236° |
| 2026-04-29 11:14 | 53.29285 | 70.15366 | 34183 ft | 415 kts | 236° |
| 2026-04-29 11:14 | 53.26065 | 70.07364 | 34181 ft | 415 kts | 236° |
| 2026-04-29 11:15 | 53.22832 | 69.99369 | 34178 ft | 416 kts | 236° |
| 2026-04-29 11:15 | 53.19590 | 69.91365 | 34178 ft | 416 kts | 236° |
| 2026-04-29 11:16 | 53.16891 | 69.84712 | 34178 ft | 417 kts | 236° |
| 2026-04-29 11:16 | 53.13100 | 69.75399 | 34182 ft | 418 kts | 236° |
| 2026-04-29 11:17 | 53.10362 | 69.68708 | 34182 ft | 418 kts | 236° |
| 2026-04-29 11:17 | 53.06541 | 69.59400 | 34185 ft | 419 kts | 236° |
| 2026-04-29 11:18 | 53.03783 | 69.52697 | 34186 ft | 419 kts | 236° |
| 2026-04-29 11:18 | 53.00486 | 69.44715 | 34191 ft | 419 kts | 236° |
| 2026-04-29 11:19 | 52.97179 | 69.36736 | 34183 ft | 419 kts | 236° |
| 2026-04-29 11:19 | 52.93897 | 69.28819 | 34182 ft | 420 kts | 236° |
| 2026-04-29 11:20 | 52.90582 | 69.20858 | 34194 ft | 420 kts | 236° |
| 2026-04-29 11:20 | 52.87245 | 69.12888 | 34192 ft | 420 kts | 236° |
| 2026-04-29 11:21 | 52.83916 | 69.04956 | 34180 ft | 420 kts | 236° |
| 2026-04-29 11:21 | 52.80590 | 68.97024 | 34177 ft | 420 kts | 235° |
| 2026-04-29 11:22 | 52.77250 | 68.89102 | 34192 ft | 419 kts | 235° |
| 2026-04-29 11:22 | 52.73926 | 68.81255 | 34183 ft | 419 kts | 235° |
| 2026-04-29 11:23 | 52.70580 | 68.73378 | 34176 ft | 419 kts | 235° |
| 2026-04-29 11:23 | 52.67225 | 68.65501 | 34188 ft | 419 kts | 235° |
| 2026-04-29 11:24 | 52.63867 | 68.57631 | 34188 ft | 419 kts | 235° |
| 2026-04-29 11:24 | 52.60512 | 68.49782 | 34186 ft | 419 kts | 235° |
| 2026-04-29 11:25 | 52.57142 | 68.41954 | 34183 ft | 419 kts | 235° |
| 2026-04-29 11:25 | 52.53772 | 68.34130 | 34180 ft | 419 kts | 235° |
| 2026-04-29 11:26 | 52.48715 | 68.22431 | 34177 ft | 419 kts | 234° |
| 2026-04-29 11:26 | 52.45330 | 68.14653 | 34175 ft | 419 kts | 234° |
| 2026-04-29 11:27 | 52.41943 | 68.06880 | 34172 ft | 419 kts | 234° |
| 2026-04-29 11:27 | 52.38552 | 67.99112 | 34175 ft | 419 kts | 234° |
| 2026-04-29 11:28 | 52.35184 | 67.91430 | 34167 ft | 418 kts | 234° |
| 2026-04-29 11:28 | 52.31788 | 67.83707 | 34169 ft | 418 kts | 234° |
| 2026-04-29 11:29 | 52.28376 | 67.75977 | 34157 ft | 418 kts | 234° |
| 2026-04-29 11:29 | 52.24973 | 67.68281 | 34167 ft | 417 kts | 234° |
| 2026-04-29 11:30 | 52.21569 | 67.60614 | 34155 ft | 417 kts | 234° |
| 2026-04-29 11:30 | 52.18202 | 67.52998 | 34160 ft | 417 kts | 235° |
| 2026-04-29 11:31 | 52.14932 | 67.45297 | 34163 ft | 417 kts | 236° |
| 2026-04-29 11:31 | 52.11664 | 67.37513 | 34162 ft | 417 kts | 236° |
| 2026-04-29 11:32 | 52.08364 | 67.29750 | 34159 ft | 416 kts | 235° |
| 2026-04-29 11:32 | 52.05046 | 67.22030 | 34154 ft | 416 kts | 235° |
| 2026-04-29 11:33 | 52.01721 | 67.14319 | 34155 ft | 416 kts | 235° |
| 2026-04-29 11:33 | 51.98429 | 67.06671 | 34159 ft | 416 kts | 235° |
| 2026-04-29 11:34 | 51.95108 | 66.98985 | 34150 ft | 416 kts | 235° |
| 2026-04-29 11:34 | 51.91781 | 66.91330 | 34154 ft | 415 kts | 235° |
| 2026-04-29 11:35 | 51.88450 | 66.83680 | 34157 ft | 415 kts | 235° |
| 2026-04-29 11:35 | 51.85121 | 66.76041 | 34158 ft | 415 kts | 235° |
| 2026-04-29 11:36 | 51.81784 | 66.68411 | 34161 ft | 415 kts | 235° |
| 2026-04-29 11:36 | 51.78447 | 66.60809 | 34156 ft | 415 kts | 235° |
| 2026-04-29 11:37 | 51.75123 | 66.53263 | 34151 ft | 415 kts | 235° |
| 2026-04-29 11:37 | 51.71771 | 66.45683 | 34155 ft | 415 kts | 235° |
| 2026-04-29 11:38 | 51.68423 | 66.38124 | 34156 ft | 414 kts | 235° |
| 2026-04-29 11:38 | 51.65068 | 66.30567 | 34146 ft | 414 kts | 235° |
| 2026-04-29 11:39 | 51.61700 | 66.23029 | 34152 ft | 414 kts | 234° |
| 2026-04-29 11:39 | 51.58339 | 66.15500 | 34154 ft | 414 kts | 235° |
| 2026-04-29 11:40 | 51.54979 | 66.07974 | 34157 ft | 414 kts | 234° |
| 2026-04-29 11:40 | 51.51632 | 66.00519 | 34154 ft | 414 kts | 234° |
| 2026-04-29 11:41 | 51.48255 | 65.93038 | 34154 ft | 414 kts | 234° |
| 2026-04-29 11:41 | 51.44879 | 65.85563 | 34150 ft | 414 kts | 234° |
| 2026-04-29 11:42 | 51.41498 | 65.78109 | 34140 ft | 414 kts | 234° |
| 2026-04-29 11:42 | 51.38110 | 65.70659 | 34153 ft | 414 kts | 234° |
| 2026-04-29 11:43 | 51.34721 | 65.63213 | 34150 ft | 414 kts | 234° |
| 2026-04-29 11:43 | 51.31323 | 65.55778 | 34158 ft | 414 kts | 234° |
| 2026-04-29 11:44 | 51.27921 | 65.48362 | 34141 ft | 414 kts | 234° |
| 2026-04-29 11:44 | 51.24534 | 65.41005 | 34149 ft | 414 kts | 234° |
| 2026-04-29 11:45 | 51.21118 | 65.33605 | 34150 ft | 414 kts | 234° |
| 2026-04-29 11:45 | 51.17696 | 65.26223 | 34146 ft | 414 kts | 234° |
| 2026-04-29 11:46 | 51.14279 | 65.18855 | 34146 ft | 413 kts | 234° |
| 2026-04-29 11:46 | 51.10857 | 65.11495 | 34142 ft | 413 kts | 234° |
| 2026-04-29 11:47 | 51.07432 | 65.04142 | 34145 ft | 413 kts | 234° |
| 2026-04-29 11:47 | 51.04002 | 64.96800 | 34145 ft | 413 kts | 234° |
| 2026-04-29 11:48 | 51.00592 | 64.89519 | 34143 ft | 413 kts | 234° |
| 2026-04-29 11:48 | 50.97154 | 64.82216 | 34141 ft | 413 kts | 234° |
| 2026-04-29 11:49 | 50.93712 | 64.74922 | 34140 ft | 413 kts | 234° |
| 2026-04-29 11:49 | 50.90269 | 64.67631 | 34141 ft | 413 kts | 234° |
| 2026-04-29 11:50 | 50.86814 | 64.60350 | 34143 ft | 413 kts | 234° |
| 2026-04-29 11:50 | 50.83351 | 64.53094 | 34140 ft | 413 kts | 234° |
| 2026-04-29 11:51 | 50.79892 | 64.45846 | 34142 ft | 413 kts | 234° |
| 2026-04-29 11:51 | 50.76436 | 64.38612 | 34144 ft | 412 kts | 234° |
| 2026-04-29 11:52 | 50.72997 | 64.31433 | 34143 ft | 412 kts | 234° |
| 2026-04-29 11:52 | 50.69530 | 64.24226 | 34145 ft | 412 kts | 234° |
| 2026-04-29 11:53 | 50.66056 | 64.17030 | 34142 ft | 412 kts | 234° |
| 2026-04-29 11:53 | 50.62581 | 64.09843 | 34135 ft | 412 kts | 234° |
| 2026-04-29 11:54 | 50.59107 | 64.02667 | 34138 ft | 412 kts | 234° |
| 2026-04-29 11:54 | 50.55634 | 63.95517 | 34144 ft | 411 kts | 234° |
| 2026-04-29 11:55 | 50.52145 | 63.88382 | 34142 ft | 411 kts | 234° |
| 2026-04-29 11:55 | 50.48656 | 63.81260 | 34145 ft | 411 kts | 234° |
| 2026-04-29 11:56 | 50.45193 | 63.74187 | 34145 ft | 411 kts | 234° |
| 2026-04-29 11:56 | 50.41711 | 63.67087 | 34142 ft | 410 kts | 234° |
| 2026-04-29 11:57 | 50.38226 | 63.60018 | 34132 ft | 410 kts | 234° |
| 2026-04-29 11:57 | 50.34727 | 63.52944 | 34139 ft | 410 kts | 234° |
| 2026-04-29 11:58 | 50.31235 | 63.45891 | 34140 ft | 409 kts | 234° |
| 2026-04-29 11:58 | 50.27740 | 63.38859 | 34134 ft | 409 kts | 234° |
| 2026-04-29 11:59 | 50.24250 | 63.31852 | 34136 ft | 409 kts | 234° |
| 2026-04-29 11:59 | 50.20747 | 63.24843 | 34134 ft | 409 kts | 234° |
| 2026-04-29 12:00 | 50.17239 | 63.17855 | 34131 ft | 408 kts | 234° |
| 2026-04-29 12:00 | 50.13761 | 63.10919 | 34128 ft | 408 kts | 234° |
| 2026-04-29 12:01 | 50.10259 | 63.03958 | 34125 ft | 408 kts | 233° |
| 2026-04-29 12:01 | 50.06742 | 62.97021 | 34128 ft | 408 kts | 233° |
| 2026-04-29 12:02 | 50.02913 | 62.90510 | 34127 ft | 410 kts | 225° |
| 2026-04-29 12:02 | 49.98710 | 62.84513 | 34121 ft | 410 kts | 225° |
| 2026-04-29 12:03 | 49.94516 | 62.78527 | 34121 ft | 409 kts | 225° |
| 2026-04-29 12:03 | 49.91029 | 62.73556 | 34126 ft | 409 kts | 225° |
| 2026-04-29 12:04 | 49.86829 | 62.67589 | 34130 ft | 409 kts | 225° |
| 2026-04-29 12:04 | 49.82622 | 62.61651 | 34126 ft | 409 kts | 225° |
| 2026-04-29 12:05 | 49.78415 | 62.55715 | 34126 ft | 409 kts | 225° |
| 2026-04-29 12:05 | 49.74390 | 62.49543 | 34121 ft | 406 kts | 233° |
| 2026-04-29 12:06 | 49.70870 | 62.42725 | 34119 ft | 406 kts | 233° |
| 2026-04-29 12:06 | 49.67344 | 62.35925 | 34125 ft | 405 kts | 233° |
| 2026-04-29 12:07 | 49.63836 | 62.29169 | 34117 ft | 405 kts | 233° |
| 2026-04-29 12:07 | 49.60306 | 62.22394 | 34118 ft | 405 kts | 233° |
| 2026-04-29 12:08 | 49.56766 | 62.15633 | 34118 ft | 405 kts | 233° |
| 2026-04-29 12:08 | 49.53221 | 62.08882 | 34117 ft | 405 kts | 233° |
| 2026-04-29 12:09 | 49.49673 | 62.02137 | 34115 ft | 405 kts | 233° |
| 2026-04-29 12:09 | 49.46129 | 61.95410 | 34116 ft | 404 kts | 233° |
| 2026-04-29 12:10 | 49.42589 | 61.88697 | 34115 ft | 404 kts | 233° |
| 2026-04-29 12:10 | 49.39060 | 61.82038 | 34112 ft | 404 kts | 233° |
| 2026-04-29 12:11 | 49.35509 | 61.75354 | 34111 ft | 404 kts | 233° |
| 2026-04-29 12:11 | 49.31955 | 61.68691 | 34110 ft | 403 kts | 233° |
| 2026-04-29 12:12 | 49.28400 | 61.62043 | 34113 ft | 403 kts | 233° |
| 2026-04-29 12:12 | 49.24849 | 61.55395 | 34107 ft | 403 kts | 233° |
| 2026-04-29 12:13 | 49.21297 | 61.48762 | 34106 ft | 402 kts | 233° |
| 2026-04-29 12:13 | 49.17737 | 61.42155 | 34101 ft | 402 kts | 233° |
| 2026-04-29 12:14 | 49.14188 | 61.35563 | 34115 ft | 401 kts | 233° |
| 2026-04-29 12:14 | 49.10634 | 61.29000 | 34104 ft | 401 kts | 233° |
| 2026-04-29 12:15 | 49.07100 | 61.22477 | 34110 ft | 400 kts | 233° |
| 2026-04-29 12:15 | 49.03546 | 61.15934 | 34110 ft | 400 kts | 233° |
| 2026-04-29 12:16 | 48.99998 | 61.09411 | 34116 ft | 399 kts | 233° |
| 2026-04-29 12:16 | 48.96446 | 61.02905 | 34104 ft | 399 kts | 233° |
| 2026-04-29 12:17 | 48.92899 | 60.96422 | 34100 ft | 398 kts | 233° |
| 2026-04-29 12:17 | 48.89348 | 60.89951 | 34101 ft | 398 kts | 233° |
| 2026-04-29 12:18 | 48.85802 | 60.83504 | 34101 ft | 397 kts | 233° |
| 2026-04-29 12:18 | 48.82254 | 60.77064 | 34105 ft | 397 kts | 232° |
| 2026-04-29 12:19 | 48.78706 | 60.70650 | 34105 ft | 397 kts | 232° |
| 2026-04-29 12:19 | 48.75160 | 60.64251 | 34102 ft | 396 kts | 232° |
| 2026-04-29 12:20 | 48.71608 | 60.57860 | 34085 ft | 396 kts | 232° |
| 2026-04-29 12:20 | 48.68089 | 60.51523 | 34104 ft | 396 kts | 232° |
| 2026-04-29 12:21 | 48.64541 | 60.45148 | 34101 ft | 395 kts | 232° |
| 2026-04-29 12:21 | 48.60991 | 60.38804 | 34101 ft | 395 kts | 232° |
| 2026-04-29 12:22 | 48.57437 | 60.32459 | 34095 ft | 395 kts | 232° |
| 2026-04-29 12:22 | 48.53882 | 60.26149 | 34096 ft | 394 kts | 232° |
| 2026-04-29 12:23 | 48.50328 | 60.19848 | 34096 ft | 394 kts | 232° |
| 2026-04-29 12:23 | 48.46794 | 60.13578 | 34097 ft | 393 kts | 232° |
| 2026-04-29 12:24 | 48.43248 | 60.07308 | 34097 ft | 393 kts | 232° |
| 2026-04-29 12:24 | 48.39703 | 60.01058 | 34093 ft | 392 kts | 231° |
| 2026-04-29 12:25 | 48.36153 | 59.94815 | 34094 ft | 392 kts | 231° |
| 2026-04-29 12:26 | 48.30858 | 59.85525 | 34093 ft | 391 kts | 231° |
| 2026-04-29 12:26 | 48.27310 | 59.79327 | 34096 ft | 391 kts | 231° |
| 2026-04-29 12:27 | 48.23766 | 59.73141 | 34091 ft | 391 kts | 231° |
| 2026-04-29 12:27 | 48.20223 | 59.66971 | 34090 ft | 390 kts | 231° |
| 2026-04-29 12:28 | 48.16680 | 59.60815 | 34091 ft | 390 kts | 231° |
| 2026-04-29 12:28 | 48.13136 | 59.54662 | 34085 ft | 390 kts | 231° |
| 2026-04-29 12:29 | 48.09606 | 59.48564 | 34086 ft | 389 kts | 231° |
| 2026-04-29 12:29 | 48.06056 | 59.42452 | 34088 ft | 389 kts | 230° |
| 2026-04-29 12:30 | 48.02497 | 59.36342 | 34081 ft | 389 kts | 230° |
| 2026-04-29 12:30 | 47.98942 | 59.30241 | 34084 ft | 389 kts | 230° |
| 2026-04-29 12:31 | 47.95385 | 59.24145 | 34085 ft | 389 kts | 230° |
| 2026-04-29 12:31 | 47.91848 | 59.18100 | 34084 ft | 389 kts | 230° |
| 2026-04-29 12:32 | 47.88285 | 59.12029 | 34082 ft | 389 kts | 230° |
| 2026-04-29 12:32 | 47.84717 | 59.05963 | 34083 ft | 389 kts | 230° |
| 2026-04-29 12:33 | 47.81148 | 58.99898 | 34081 ft | 389 kts | 230° |
| 2026-04-29 12:33 | 47.77580 | 58.93854 | 34082 ft | 389 kts | 230° |
| 2026-04-29 12:34 | 47.74005 | 58.87814 | 34082 ft | 389 kts | 230° |
| 2026-04-29 12:34 | 47.70426 | 58.81773 | 34083 ft | 389 kts | 230° |
| 2026-04-29 12:35 | 47.66850 | 58.75744 | 34080 ft | 389 kts | 230° |
| 2026-04-29 12:35 | 47.63265 | 58.69733 | 34078 ft | 389 kts | 229° |
| 2026-04-29 12:36 | 47.59699 | 58.63765 | 34079 ft | 389 kts | 229° |
| 2026-04-29 12:36 | 47.56104 | 58.57768 | 34082 ft | 389 kts | 229° |
| 2026-04-29 12:37 | 47.52506 | 58.51787 | 34083 ft | 389 kts | 229° |
| 2026-04-29 12:37 | 47.48907 | 58.45798 | 34083 ft | 389 kts | 229° |
| 2026-04-29 12:38 | 47.45314 | 58.39815 | 34082 ft | 389 kts | 229° |
| 2026-04-29 12:38 | 47.41712 | 58.33846 | 34081 ft | 389 kts | 229° |
| 2026-04-29 12:39 | 47.38106 | 58.27893 | 34078 ft | 389 kts | 229° |
| 2026-04-29 12:39 | 47.34493 | 58.21953 | 34077 ft | 389 kts | 228° |
| 2026-04-29 12:40 | 47.30870 | 58.16017 | 34070 ft | 389 kts | 228° |
| 2026-04-29 12:40 | 47.27263 | 58.10139 | 34073 ft | 389 kts | 228° |
| 2026-04-29 12:41 | 47.23594 | 58.04272 | 34073 ft | 389 kts | 227° |
| 2026-04-29 12:41 | 47.19922 | 57.98431 | 34073 ft | 389 kts | 227° |
| 2026-04-29 12:42 | 47.16247 | 57.92578 | 34070 ft | 389 kts | 227° |
| 2026-04-29 12:42 | 47.12568 | 57.86727 | 34076 ft | 389 kts | 227° |
| 2026-04-29 12:43 | 47.08895 | 57.80894 | 34071 ft | 389 kts | 227° |
| 2026-04-29 12:43 | 47.05222 | 57.75062 | 34074 ft | 389 kts | 227° |
| 2026-04-29 12:44 | 47.01537 | 57.69242 | 34070 ft | 389 kts | 227° |
| 2026-04-29 12:44 | 46.97850 | 57.63439 | 34073 ft | 389 kts | 227° |
| 2026-04-29 12:45 | 46.94162 | 57.57645 | 34070 ft | 389 kts | 227° |
| 2026-04-29 12:45 | 46.90490 | 57.51885 | 34070 ft | 389 kts | 227° |
| 2026-04-29 12:46 | 46.86792 | 57.46094 | 34071 ft | 390 kts | 227° |
| 2026-04-29 12:46 | 46.83089 | 57.40299 | 34067 ft | 390 kts | 226° |
| 2026-04-29 12:47 | 46.79375 | 57.34518 | 34067 ft | 390 kts | 226° |
| 2026-04-29 12:47 | 46.75647 | 57.28730 | 34067 ft | 391 kts | 226° |
| 2026-04-29 12:48 | 46.71950 | 57.22978 | 34065 ft | 391 kts | 226° |
| 2026-04-29 12:48 | 46.68216 | 57.17192 | 34069 ft | 391 kts | 226° |
| 2026-04-29 12:49 | 46.64479 | 57.11413 | 34068 ft | 392 kts | 226° |
| 2026-04-29 12:49 | 46.60736 | 57.05637 | 34069 ft | 392 kts | 226° |
| 2026-04-29 12:50 | 46.57622 | 57.00847 | 34071 ft | 392 kts | 226° |
| 2026-04-29 12:50 | 46.53252 | 56.94156 | 34071 ft | 393 kts | 226° |
| 2026-04-29 12:51 | 46.50105 | 56.89329 | 34073 ft | 393 kts | 226° |
| 2026-04-29 12:51 | 46.46838 | 56.83063 | 34070 ft | 394 kts | 238° |
| 2026-04-29 12:52 | 46.44042 | 56.76225 | 34075 ft | 394 kts | 238° |
| 2026-04-29 12:52 | 46.41228 | 56.69405 | 34075 ft | 394 kts | 238° |
| 2026-04-29 12:53 | 46.38415 | 56.62589 | 34072 ft | 394 kts | 238° |
| 2026-04-29 12:53 | 46.35601 | 56.55794 | 34075 ft | 394 kts | 237° |
| 2026-04-29 12:54 | 46.32778 | 56.49006 | 34080 ft | 394 kts | 237° |
| 2026-04-29 12:54 | 46.29955 | 56.42220 | 34082 ft | 393 kts | 237° |
| 2026-04-29 12:55 | 46.27136 | 56.35458 | 34081 ft | 393 kts | 237° |
| 2026-04-29 12:55 | 46.24312 | 56.28705 | 34077 ft | 392 kts | 237° |
| 2026-04-29 12:56 | 46.21482 | 56.21962 | 34079 ft | 392 kts | 237° |
| 2026-04-29 12:56 | 46.20063 | 56.18587 | 33816 ft | 393 kts | 239° |
| 2026-04-29 12:56 | 46.18641 | 56.15202 | 33985 ft | 395 kts | 238° |
| 2026-04-29 12:57 | 46.15757 | 56.08353 | 34010 ft | 408 kts | 238° |
| 2026-04-29 12:57 | 46.12754 | 56.01239 | 34010 ft | 422 kts | 238° |
| 2026-04-29 12:58 | 46.09641 | 55.93893 | 34010 ft | 437 kts | 238° |
| 2026-04-29 12:58 | 46.06418 | 55.86312 | 34010 ft | 449 kts | 238° |
| 2026-04-29 12:59 | 46.03164 | 55.78671 | 34009 ft | 451 kts | 238° |
| 2026-04-29 12:59 | 45.99876 | 55.70971 | 34009 ft | 452 kts | 238° |
| 2026-04-29 13:00 | 45.96579 | 55.63279 | 34009 ft | 452 kts | 238° |
| 2026-04-29 13:00 | 45.93278 | 55.55594 | 34012 ft | 452 kts | 238° |
| 2026-04-29 13:01 | 45.89979 | 55.47909 | 34014 ft | 452 kts | 238° |
| 2026-04-29 13:01 | 45.86666 | 55.40227 | 34019 ft | 452 kts | 238° |
| 2026-04-29 13:02 | 45.83344 | 55.32560 | 34022 ft | 453 kts | 238° |
| 2026-04-29 13:02 | 45.80015 | 55.24902 | 34027 ft | 453 kts | 238° |
| 2026-04-29 13:03 | 45.76677 | 55.17243 | 34024 ft | 453 kts | 238° |
| 2026-04-29 13:03 | 45.75015 | 55.13422 | 34322 ft | 450 kts | 236° |
| 2026-04-29 13:03 | 45.73436 | 55.09788 | 35189 ft | 412 kts | 236° |
| 2026-04-29 13:03 | 45.71982 | 55.06425 | 35648 ft | 386 kts | 236° |
| 2026-04-29 13:04 | 45.70611 | 55.03196 | 35598 ft | 371 kts | 236° |
| 2026-04-29 13:04 | 45.69316 | 55.00213 | 36257 ft | 342 kts | 236° |
| 2026-04-29 13:04 | 45.68033 | 54.97317 | 35267 ft | 353 kts | 235° |
| 2026-04-29 13:04 | 45.66673 | 54.94296 | 34498 ft | 368 kts | 235° |
| 2026-04-29 13:05 | 45.65266 | 54.91162 | 34217 ft | 379 kts | 235° |
| 2026-04-29 13:05 | 45.63841 | 54.87962 | 34038 ft | 384 kts | 235° |
| 2026-04-29 13:05 | 45.62434 | 54.84774 | 34030 ft | 385 kts | 235° |
| 2026-04-29 13:06 | 45.59571 | 54.78282 | 34043 ft | 387 kts | 235° |
| 2026-04-29 13:06 | 45.56679 | 54.71752 | 34043 ft | 387 kts | 235° |
| 2026-04-29 13:07 | 45.53817 | 54.65301 | 34038 ft | 387 kts | 235° |
| 2026-04-29 13:07 | 45.50938 | 54.58808 | 34039 ft | 387 kts | 235° |
| 2026-04-29 13:08 | 45.48049 | 54.52328 | 34061 ft | 387 kts | 235° |
| 2026-04-29 13:08 | 45.45151 | 54.45857 | 34065 ft | 387 kts | 235° |
| 2026-04-29 13:09 | 45.42247 | 54.39389 | 34066 ft | 387 kts | 235° |
| 2026-04-29 13:09 | 45.39344 | 54.32933 | 34066 ft | 387 kts | 234° |
| 2026-04-29 13:10 | 45.36454 | 54.26517 | 34071 ft | 387 kts | 234° |
| 2026-04-29 13:10 | 45.33544 | 54.20067 | 34061 ft | 387 kts | 234° |
| 2026-04-29 13:11 | 45.30627 | 54.13615 | 34076 ft | 387 kts | 234° |
| 2026-04-29 13:11 | 45.27713 | 54.07192 | 34068 ft | 387 kts | 234° |
| 2026-04-29 13:12 | 45.24796 | 54.00770 | 34076 ft | 387 kts | 234° |
| 2026-04-29 13:12 | 45.21876 | 53.94365 | 34071 ft | 387 kts | 234° |
| 2026-04-29 13:13 | 45.18951 | 53.87964 | 34074 ft | 386 kts | 234° |
| 2026-04-29 13:13 | 45.16028 | 53.81572 | 34076 ft | 386 kts | 234° |
| 2026-04-29 13:14 | 45.13130 | 53.75228 | 34072 ft | 386 kts | 234° |
| 2026-04-29 13:14 | 45.10207 | 53.68851 | 34075 ft | 386 kts | 233° |
| 2026-04-29 13:15 | 45.07281 | 53.62480 | 34072 ft | 386 kts | 233° |
| 2026-04-29 13:15 | 45.04357 | 53.56117 | 34073 ft | 386 kts | 233° |
| 2026-04-29 13:16 | 45.01424 | 53.49757 | 34075 ft | 386 kts | 233° |
| 2026-04-29 13:16 | 44.98479 | 53.43398 | 34075 ft | 387 kts | 233° |
| 2026-04-29 13:17 | 44.95529 | 53.37040 | 34081 ft | 387 kts | 233° |
| 2026-04-29 13:17 | 44.92573 | 53.30680 | 34077 ft | 387 kts | 233° |
| 2026-04-29 13:18 | 44.89618 | 53.24330 | 34082 ft | 387 kts | 233° |
| 2026-04-29 13:18 | 44.86679 | 53.18027 | 34080 ft | 387 kts | 233° |
| 2026-04-29 13:19 | 44.83715 | 53.11674 | 34082 ft | 388 kts | 232° |
| 2026-04-29 13:19 | 44.80740 | 53.05330 | 34077 ft | 388 kts | 232° |
| 2026-04-29 13:20 | 44.77746 | 52.98990 | 34080 ft | 389 kts | 232° |
| 2026-04-29 13:20 | 44.74749 | 52.92653 | 34080 ft | 389 kts | 232° |
| 2026-04-29 13:21 | 44.71752 | 52.86305 | 34079 ft | 390 kts | 232° |
| 2026-04-29 13:21 | 44.68768 | 52.80004 | 34079 ft | 390 kts | 232° |
| 2026-04-29 13:22 | 44.65761 | 52.73652 | 34079 ft | 391 kts | 232° |
| 2026-04-29 13:22 | 44.62739 | 52.67292 | 34087 ft | 392 kts | 232° |
| 2026-04-29 13:23 | 44.59698 | 52.60914 | 34084 ft | 392 kts | 232° |
| 2026-04-29 13:23 | 44.56657 | 52.54539 | 34092 ft | 393 kts | 232° |
| 2026-04-29 13:24 | 44.53612 | 52.48164 | 34095 ft | 394 kts | 232° |
| 2026-04-29 13:24 | 44.50559 | 52.41799 | 34101 ft | 394 kts | 231° |
| 2026-04-29 13:25 | 44.47492 | 52.35431 | 34101 ft | 394 kts | 231° |
| 2026-04-29 13:25 | 44.42902 | 52.25924 | 34113 ft | 395 kts | 231° |
| 2026-04-29 13:26 | 44.39822 | 52.19564 | 34113 ft | 395 kts | 231° |
| 2026-04-29 13:26 | 44.36745 | 52.13199 | 34111 ft | 395 kts | 232° |
| 2026-04-29 13:27 | 44.33775 | 52.06714 | 34109 ft | 396 kts | 233° |
| 2026-04-29 13:27 | 44.30843 | 52.00187 | 34109 ft | 396 kts | 232° |
| 2026-04-29 13:28 | 44.27894 | 51.93688 | 34105 ft | 396 kts | 232° |
| 2026-04-29 13:28 | 44.24918 | 51.87211 | 34103 ft | 396 kts | 232° |
| 2026-04-29 13:29 | 44.21929 | 51.80746 | 34102 ft | 397 kts | 232° |
| 2026-04-29 13:29 | 44.18944 | 51.74277 | 34104 ft | 397 kts | 231° |
| 2026-04-29 13:30 | 44.15969 | 51.67846 | 34102 ft | 397 kts | 231° |
| 2026-04-29 13:30 | 44.12971 | 51.61385 | 34097 ft | 397 kts | 231° |
| 2026-04-29 13:31 | 44.09969 | 51.54919 | 34096 ft | 398 kts | 231° |
| 2026-04-29 13:31 | 44.06959 | 51.48469 | 34095 ft | 398 kts | 231° |
| 2026-04-29 13:32 | 44.03943 | 51.42009 | 34092 ft | 398 kts | 231° |
| 2026-04-29 13:32 | 44.00923 | 51.35542 | 34094 ft | 399 kts | 231° |
| 2026-04-29 13:33 | 43.97900 | 51.29075 | 34084 ft | 400 kts | 231° |
| 2026-04-29 13:33 | 43.94861 | 51.22593 | 34088 ft | 401 kts | 231° |
| 2026-04-29 13:34 | 43.91807 | 51.16110 | 34078 ft | 402 kts | 231° |
| 2026-04-29 13:34 | 43.88736 | 51.09625 | 34079 ft | 403 kts | 231° |
| 2026-04-29 13:35 | 43.86126 | 51.02731 | 34073 ft | 412 kts | 242° |
| 2026-04-29 13:35 | 43.83967 | 50.95375 | 34072 ft | 413 kts | 242° |
| 2026-04-29 13:36 | 43.81783 | 50.87993 | 34075 ft | 414 kts | 242° |
| 2026-04-29 13:36 | 43.79588 | 50.80612 | 34076 ft | 415 kts | 242° |
| 2026-04-29 13:37 | 43.77376 | 50.73218 | 34079 ft | 416 kts | 242° |
| 2026-04-29 13:37 | 43.75160 | 50.65814 | 34081 ft | 417 kts | 242° |
| 2026-04-29 13:38 | 43.73311 | 50.59651 | 34081 ft | 418 kts | 242° |
| 2026-04-29 13:38 | 43.71075 | 50.52227 | 34082 ft | 418 kts | 242° |
| 2026-04-29 13:39 | 43.68834 | 50.44800 | 34085 ft | 419 kts | 242° |
| 2026-04-29 13:39 | 43.66588 | 50.37369 | 34085 ft | 420 kts | 242° |
| 2026-04-29 13:40 | 43.64329 | 50.29930 | 34087 ft | 420 kts | 242° |
| 2026-04-29 13:40 | 43.62061 | 50.22482 | 34087 ft | 421 kts | 243° |
| 2026-04-29 13:41 | 43.59790 | 50.15025 | 34089 ft | 422 kts | 243° |
| 2026-04-29 13:41 | 43.57512 | 50.07558 | 34090 ft | 423 kts | 243° |
| 2026-04-29 13:42 | 43.55239 | 50.00144 | 34091 ft | 423 kts | 243° |
| 2026-04-29 13:42 | 43.52938 | 49.92673 | 34091 ft | 424 kts | 243° |
| 2026-04-29 13:43 | 43.50631 | 49.85204 | 34102 ft | 424 kts | 243° |
| 2026-04-29 13:43 | 43.48321 | 49.77725 | 34104 ft | 424 kts | 243° |
| 2026-04-29 13:44 | 43.46003 | 49.70250 | 34109 ft | 425 kts | 243° |
| 2026-04-29 13:44 | 43.43671 | 49.62776 | 34110 ft | 425 kts | 243° |
| 2026-04-29 13:45 | 43.41331 | 49.55312 | 34111 ft | 425 kts | 244° |
| 2026-04-29 13:45 | 43.39936 | 49.47372 | 34118 ft | 433 kts | 263° |
| 2026-04-29 13:46 | 43.40135 | 49.39048 | 34121 ft | 437 kts | 269° |
| 2026-04-29 13:46 | 43.40477 | 49.30698 | 34125 ft | 437 kts | 269° |
| 2026-04-29 13:47 | 43.40805 | 49.22359 | 34130 ft | 437 kts | 269° |
| 2026-04-29 13:47 | 43.41131 | 49.14019 | 34136 ft | 436 kts | 269° |
| 2026-04-29 13:48 | 43.41448 | 49.05732 | 34139 ft | 436 kts | 269° |
| 2026-04-29 13:48 | 43.41762 | 48.97403 | 34143 ft | 436 kts | 269° |
| 2026-04-29 13:49 | 43.42072 | 48.89067 | 34149 ft | 436 kts | 269° |
| 2026-04-29 13:49 | 43.42382 | 48.80747 | 34156 ft | 435 kts | 269° |
| 2026-04-29 13:50 | 43.42685 | 48.72417 | 34161 ft | 435 kts | 269° |
| 2026-04-29 13:50 | 43.42967 | 48.64106 | 34162 ft | 434 kts | 269° |
| 2026-04-29 13:51 | 43.43248 | 48.55817 | 34167 ft | 434 kts | 269° |
| 2026-04-29 13:51 | 43.43522 | 48.47588 | 34166 ft | 433 kts | 269° |
| 2026-04-29 13:52 | 43.43789 | 48.39313 | 34172 ft | 433 kts | 269° |
| 2026-04-29 13:52 | 43.44057 | 48.31042 | 34173 ft | 432 kts | 269° |
| 2026-04-29 13:53 | 43.44313 | 48.22782 | 34175 ft | 432 kts | 269° |
| 2026-04-29 13:53 | 43.44565 | 48.14520 | 34177 ft | 431 kts | 269° |
| 2026-04-29 13:54 | 43.44810 | 48.06321 | 34181 ft | 431 kts | 269° |
| 2026-04-29 13:54 | 43.45050 | 47.98090 | 34181 ft | 430 kts | 269° |
| 2026-04-29 13:55 | 43.45287 | 47.89867 | 34179 ft | 430 kts | 269° |
| 2026-04-29 13:55 | 43.45518 | 47.81640 | 34177 ft | 430 kts | 269° |
| 2026-04-29 13:56 | 43.45742 | 47.73421 | 34179 ft | 429 kts | 268° |
| 2026-04-29 13:56 | 43.45952 | 47.65208 | 34180 ft | 429 kts | 268° |
| 2026-04-29 13:57 | 43.46164 | 47.56999 | 34177 ft | 429 kts | 268° |
| 2026-04-29 13:57 | 43.46368 | 47.48784 | 34181 ft | 429 kts | 268° |
| 2026-04-29 13:58 | 43.46559 | 47.40569 | 34185 ft | 429 kts | 268° |
| 2026-04-29 13:58 | 43.46751 | 47.32366 | 34190 ft | 429 kts | 268° |
| 2026-04-29 13:59 | 43.46934 | 47.24211 | 34190 ft | 428 kts | 268° |
| 2026-04-29 13:59 | 43.47116 | 47.16006 | 34184 ft | 428 kts | 268° |
| 2026-04-29 14:00 | 43.47293 | 47.07823 | 34191 ft | 427 kts | 268° |
| 2026-04-29 14:00 | 43.47458 | 46.99650 | 34177 ft | 427 kts | 268° |
| 2026-04-29 14:01 | 43.47619 | 46.91477 | 34175 ft | 427 kts | 268° |
| 2026-04-29 14:01 | 43.47771 | 46.83317 | 34176 ft | 426 kts | 268° |
| 2026-04-29 14:02 | 43.47920 | 46.75148 | 34174 ft | 426 kts | 268° |
| 2026-04-29 14:02 | 43.48062 | 46.66997 | 34169 ft | 426 kts | 268° |
| 2026-04-29 14:03 | 43.48198 | 46.58847 | 34175 ft | 425 kts | 268° |
| 2026-04-29 14:03 | 43.48339 | 46.50705 | 34179 ft | 425 kts | 268° |
| 2026-04-29 14:04 | 43.48466 | 46.42621 | 34172 ft | 424 kts | 268° |
| 2026-04-29 14:04 | 43.48587 | 46.34504 | 34176 ft | 424 kts | 268° |
| 2026-04-29 14:05 | 43.48705 | 46.26388 | 34171 ft | 424 kts | 268° |
| 2026-04-29 14:05 | 43.48812 | 46.18271 | 34170 ft | 424 kts | 267° |
| 2026-04-29 14:06 | 43.48910 | 46.10147 | 34169 ft | 424 kts | 267° |
| 2026-04-29 14:06 | 43.49147 | 46.02023 | 34166 ft | 426 kts | 273° |
| 2026-04-29 14:07 | 43.49832 | 45.93916 | 34166 ft | 426 kts | 272° |
| 2026-04-29 14:07 | 43.50505 | 45.85812 | 34166 ft | 425 kts | 272° |
| 2026-04-29 14:08 | 43.51164 | 45.77767 | 34162 ft | 425 kts | 272° |
| 2026-04-29 14:08 | 43.51825 | 45.69686 | 34165 ft | 425 kts | 272° |
| 2026-04-29 14:09 | 43.52479 | 45.61590 | 34164 ft | 425 kts | 272° |
| 2026-04-29 14:09 | 43.53126 | 45.53497 | 34163 ft | 425 kts | 272° |
| 2026-04-29 14:10 | 43.53770 | 45.45404 | 34159 ft | 425 kts | 272° |
| 2026-04-29 14:10 | 43.54404 | 45.37304 | 34159 ft | 424 kts | 272° |
| 2026-04-29 14:11 | 43.55037 | 45.29218 | 34160 ft | 424 kts | 272° |
| 2026-04-29 14:11 | 43.55661 | 45.21124 | 34156 ft | 424 kts | 271° |
| 2026-04-29 14:12 | 43.56270 | 45.13100 | 34155 ft | 424 kts | 272° |
| 2026-04-29 14:12 | 43.56889 | 45.05018 | 34156 ft | 423 kts | 271° |
| 2026-04-29 14:13 | 43.57495 | 44.96946 | 34159 ft | 423 kts | 271° |
| 2026-04-29 14:13 | 43.58093 | 44.88878 | 34155 ft | 422 kts | 271° |
| 2026-04-29 14:14 | 43.58681 | 44.80822 | 34149 ft | 422 kts | 271° |
| 2026-04-29 14:14 | 43.59268 | 44.72756 | 34152 ft | 422 kts | 271° |
| 2026-04-29 14:15 | 43.59854 | 44.64694 | 34145 ft | 422 kts | 271° |
| 2026-04-29 14:15 | 43.60432 | 44.56630 | 34138 ft | 422 kts | 271° |
| 2026-04-29 14:16 | 43.61004 | 44.48564 | 34141 ft | 421 kts | 271° |
| 2026-04-29 14:16 | 43.61565 | 44.40516 | 34134 ft | 421 kts | 271° |
| 2026-04-29 14:17 | 43.62120 | 44.32471 | 34125 ft | 421 kts | 271° |
| 2026-04-29 14:17 | 43.62669 | 44.24481 | 34125 ft | 421 kts | 271° |
| 2026-04-29 14:18 | 43.63217 | 44.16433 | 34125 ft | 421 kts | 271° |
| 2026-04-29 14:18 | 43.63666 | 44.08377 | 34124 ft | 420 kts | 269° |
| 2026-04-29 14:19 | 43.63885 | 44.00339 | 34119 ft | 419 kts | 268° |
| 2026-04-29 14:19 | 43.64054 | 43.92291 | 34127 ft | 419 kts | 268° |
| 2026-04-29 14:20 | 43.64254 | 43.84253 | 34133 ft | 419 kts | 268° |
| 2026-04-29 14:20 | 43.64484 | 43.76212 | 34133 ft | 419 kts | 268° |
| 2026-04-29 14:21 | 43.64713 | 43.68222 | 34137 ft | 418 kts | 268° |
| 2026-04-29 14:21 | 43.64923 | 43.60201 | 34137 ft | 417 kts | 268° |
| 2026-04-29 14:22 | 43.65124 | 43.52191 | 34135 ft | 417 kts | 268° |
| 2026-04-29 14:22 | 43.65316 | 43.44191 | 34135 ft | 417 kts | 268° |
| 2026-04-29 14:23 | 43.65500 | 43.36201 | 34133 ft | 416 kts | 268° |
| 2026-04-29 14:23 | 43.65686 | 43.28213 | 34131 ft | 416 kts | 268° |
| 2026-04-29 14:24 | 43.65870 | 43.20263 | 34136 ft | 415 kts | 268° |
| 2026-04-29 14:24 | 43.66050 | 43.12298 | 34136 ft | 415 kts | 268° |
| 2026-04-29 14:25 | 43.66217 | 43.04342 | 34138 ft | 414 kts | 268° |
| 2026-04-29 14:25 | 43.66375 | 42.96400 | 34138 ft | 413 kts | 268° |
| 2026-04-29 14:26 | 43.66508 | 42.89807 | 34134 ft | 413 kts | 268° |
| 2026-04-29 14:26 | 43.66683 | 42.80607 | 34132 ft | 412 kts | 268° |
| 2026-04-29 14:27 | 43.66832 | 42.72703 | 34128 ft | 412 kts | 268° |
| 2026-04-29 14:28 | 43.67018 | 42.62138 | 34125 ft | 411 kts | 268° |
| 2026-04-29 14:28 | 43.67147 | 42.54304 | 34123 ft | 410 kts | 267° |
| 2026-04-29 14:29 | 43.67274 | 42.46429 | 34118 ft | 410 kts | 267° |
| 2026-04-29 14:29 | 43.67400 | 42.38566 | 34119 ft | 409 kts | 267° |
| 2026-04-29 14:30 | 43.67518 | 42.30710 | 34118 ft | 409 kts | 267° |
| 2026-04-29 14:30 | 43.67627 | 42.22851 | 34116 ft | 409 kts | 267° |
| 2026-04-29 14:31 | 43.67729 | 42.15009 | 34118 ft | 408 kts | 267° |
| 2026-04-29 14:31 | 43.67825 | 42.07162 | 34118 ft | 408 kts | 268° |
| 2026-04-29 14:32 | 43.67918 | 41.99305 | 34120 ft | 409 kts | 267° |
| 2026-04-29 14:32 | 43.68012 | 41.91463 | 34117 ft | 408 kts | 268° |
| 2026-04-29 14:33 | 43.68094 | 41.83621 | 34122 ft | 408 kts | 267° |
| 2026-04-29 14:33 | 43.68169 | 41.75833 | 34131 ft | 408 kts | 268° |
| 2026-04-29 14:34 | 43.68241 | 41.67998 | 34128 ft | 408 kts | 268° |
| 2026-04-29 14:34 | 43.68314 | 41.60158 | 34140 ft | 408 kts | 268° |
| 2026-04-29 14:35 | 43.68378 | 41.52325 | 34137 ft | 408 kts | 268° |
| 2026-04-29 14:35 | 43.68406 | 41.48410 | 33921 ft | 408 kts | 268° |
| 2026-04-29 14:35 | 43.68433 | 41.44495 | 33648 ft | 407 kts | 268° |
| 2026-04-29 14:35 | 43.68459 | 41.40579 | 33375 ft | 408 kts | 268° |
| 2026-04-29 14:36 | 43.68485 | 41.36654 | 33104 ft | 408 kts | 268° |
| 2026-04-29 14:36 | 43.68509 | 41.32728 | 32836 ft | 409 kts | 268° |
| 2026-04-29 14:36 | 43.68532 | 41.28799 | 32575 ft | 409 kts | 267° |
| 2026-04-29 14:36 | 43.68551 | 41.24868 | 32312 ft | 410 kts | 268° |
| 2026-04-29 14:37 | 43.68568 | 41.20932 | 32046 ft | 410 kts | 268° |
| 2026-04-29 14:37 | 43.68585 | 41.16987 | 31807 ft | 410 kts | 268° |
| 2026-04-29 14:37 | 43.68603 | 41.13036 | 31545 ft | 411 kts | 268° |
| 2026-04-29 14:37 | 43.68621 | 41.09089 | 31290 ft | 411 kts | 268° |
| 2026-04-29 14:38 | 43.68636 | 41.05133 | 31043 ft | 412 kts | 268° |
| 2026-04-29 14:38 | 43.68648 | 41.01175 | 30799 ft | 412 kts | 268° |
| 2026-04-29 14:38 | 43.68657 | 40.97214 | 30546 ft | 412 kts | 268° |
| 2026-04-29 14:38 | 43.68666 | 40.93246 | 30303 ft | 413 kts | 268° |
| 2026-04-29 14:39 | 43.68674 | 40.89331 | 30039 ft | 413 kts | 268° |
| 2026-04-29 14:39 | 43.68684 | 40.85364 | 29749 ft | 413 kts | 268° |
| 2026-04-29 14:39 | 43.68702 | 40.81400 | 29466 ft | 411 kts | 268° |
| 2026-04-29 14:39 | 43.68726 | 40.77460 | 29181 ft | 410 kts | 268° |
| 2026-04-29 14:40 | 43.68751 | 40.73532 | 28905 ft | 408 kts | 268° |
| 2026-04-29 14:40 | 43.68775 | 40.69620 | 28631 ft | 406 kts | 268° |
| 2026-04-29 14:40 | 43.68792 | 40.65730 | 28347 ft | 404 kts | 268° |
| 2026-04-29 14:40 | 43.68803 | 40.61868 | 27899 ft | 399 kts | 268° |
| 2026-04-29 14:41 | 43.68811 | 40.58053 | 27330 ft | 393 kts | 268° |
| 2026-04-29 14:41 | 43.68818 | 40.54303 | 26775 ft | 388 kts | 268° |
| 2026-04-29 14:41 | 43.68823 | 40.50596 | 26235 ft | 383 kts | 268° |
| 2026-04-29 14:41 | 43.68826 | 40.46944 | 25703 ft | 378 kts | 268° |
| 2026-04-29 14:42 | 43.68829 | 40.43328 | 25175 ft | 374 kts | 268° |
| 2026-04-29 14:42 | 43.68834 | 40.39755 | 24652 ft | 370 kts | 268° |
| 2026-04-29 14:42 | 43.68841 | 40.36216 | 24148 ft | 367 kts | 268° |
| 2026-04-29 14:42 | 43.68849 | 40.32703 | 23628 ft | 364 kts | 268° |
| 2026-04-29 14:43 | 43.68853 | 40.29229 | 23097 ft | 359 kts | 268° |
| 2026-04-29 14:43 | 43.68855 | 40.25806 | 22625 ft | 354 kts | 268° |
| 2026-04-29 14:43 | 43.68856 | 40.22478 | 22176 ft | 348 kts | 268° |
| 2026-04-29 14:43 | 43.68854 | 40.19114 | 21723 ft | 343 kts | 268° |
| 2026-04-29 14:44 | 43.68848 | 40.15841 | 21303 ft | 340 kts | 268° |
| 2026-04-29 14:44 | 43.68838 | 40.12582 | 20875 ft | 339 kts | 268° |
| 2026-04-29 14:44 | 43.68827 | 40.09371 | 20447 ft | 343 kts | 268° |
| 2026-04-29 14:44 | 43.68802 | 40.05994 | 20027 ft | 356 kts | 268° |
| 2026-04-29 14:45 | 43.68770 | 40.02562 | 19606 ft | 357 kts | 268° |
| 2026-04-29 14:45 | 43.68731 | 39.99124 | 19191 ft | 358 kts | 268° |
| 2026-04-29 14:45 | 43.68687 | 39.95695 | 18784 ft | 356 kts | 268° |
| 2026-04-29 14:45 | 43.68648 | 39.92288 | 18375 ft | 354 kts | 268° |
| 2026-04-29 14:46 | 43.68606 | 39.88898 | 17915 ft | 352 kts | 268° |